createdAt,value
2018-12-18T00:01:17.416Z,96251.06
2018-12-18T00:03:53.104Z,96254.80
2018-12-18T00:06:28.744Z,96254.72
2018-12-18T00:09:06.360Z,96255.91
2018-12-18T00:11:42.050Z,96259.61
2018-12-18T00:14:17.678Z,96244.08
2018-12-18T00:16:53.452Z,96243.60
2018-12-18T00:19:29.005Z,96235.71
2018-12-18T00:22:05.007Z,96233.13
2018-12-18T00:24:40.753Z,96234.63
2018-12-18T00:27:16.357Z,96244.67
2018-12-18T00:29:52.060Z,96242.86
2018-12-18T00:32:29.331Z,96234.79
2018-12-18T00:35:05.577Z,96233.98
2018-12-18T00:37:41.210Z,96236.64
2018-12-18T00:43:01.493Z,96228.38
2018-12-18T00:45:37.133Z,96232.67
2018-12-18T00:48:13.012Z,96235.91
2018-12-18T00:50:48.651Z,96243.52
2018-12-18T00:53:24.392Z,96239.38
2018-12-18T00:55:59.977Z,96243.63
2018-12-18T00:58:35.636Z,96236.08
2018-12-18T01:01:11.436Z,96236.73
2018-12-18T01:03:52.712Z,96233.33
2018-12-18T01:06:25.647Z,96234.72
2018-12-18T01:09:01.269Z,96232.56
2018-12-18T01:11:37.023Z,96226.84
2018-12-18T01:14:13.409Z,96220.18
2018-12-18T01:16:49.010Z,96221.91
2018-12-18T01:19:24.698Z,96230.13
2018-12-18T01:22:00.460Z,96229.27
2018-12-18T01:24:36.161Z,96226.80
2018-12-18T01:27:11.897Z,96217.80
2018-12-18T01:29:47.546Z,96213.33
2018-12-18T01:32:23.425Z,96215.53
2018-12-18T01:34:59.036Z,96213.78
2018-12-18T01:37:34.978Z,96211.70
2018-12-18T01:40:11.385Z,96213.30
2018-12-18T01:42:46.935Z,96210.25
2018-12-18T01:45:22.520Z,96201.18
2018-12-18T01:47:58.255Z,96196.22
2018-12-18T01:50:34.143Z,96201.58
2018-12-18T01:53:09.774Z,96186.09
2018-12-18T01:55:45.587Z,96177.77
2018-12-18T01:58:21.332Z,96177.65
2018-12-18T02:00:57.100Z,96179.53
2018-12-18T02:03:32.791Z,96168.17
2018-12-18T02:06:08.895Z,96150.14
2018-12-18T02:08:44.559Z,96153.91
2018-12-18T02:11:20.380Z,96144.05
2018-12-18T02:13:56.365Z,96148.26
2018-12-18T02:16:32.093Z,96147.36
2018-12-18T02:19:07.788Z,96145.66
2018-12-18T02:21:43.452Z,96134.28
2018-12-18T02:24:19.079Z,96132.38
2018-12-18T02:26:55.747Z,96127.68
2018-12-18T02:32:12.980Z,96126.23
2018-12-18T02:34:48.604Z,96126.23
2018-12-18T02:37:24.491Z,96129.99
2018-12-18T02:40:00.133Z,96125.26
2018-12-18T02:42:35.799Z,96132.68
2018-12-18T02:45:11.871Z,96125.88
2018-12-18T02:47:47.505Z,96129.23
2018-12-18T02:50:23.043Z,96132.89
2018-12-18T02:52:58.720Z,96130.23
2018-12-18T02:55:34.476Z,96131.93
2018-12-18T02:58:10.160Z,96130.08
2018-12-18T03:00:45.866Z,96118.22
2018-12-18T03:03:21.637Z,96122.08
2018-12-18T03:05:57.405Z,96119.78
2018-12-18T03:08:33.085Z,96126.02
2018-12-18T03:11:10.945Z,96127.46
2018-12-18T03:13:47.715Z,96115.02
2018-12-18T03:16:23.964Z,96109.27
2018-12-18T03:18:59.648Z,96102.25
2018-12-18T03:21:35.442Z,96096.77
2018-12-18T03:24:11.194Z,96094.64
2018-12-18T03:26:46.849Z,96087.40
2018-12-18T03:29:22.808Z,96071.97
2018-12-18T03:32:02.402Z,96084.14
2018-12-18T03:34:39.046Z,96071.88
2018-12-18T03:37:14.666Z,96079.00
2018-12-18T03:39:50.416Z,96070.18
2018-12-18T03:42:26.180Z,96064.38
2018-12-18T03:45:01.789Z,96063.39
2018-12-18T03:47:37.480Z,96067.37
2018-12-18T03:50:13.186Z,96066.02
2018-12-18T03:52:48.802Z,96063.12
2018-12-18T03:55:25.447Z,96070.45
2018-12-18T03:58:01.605Z,96064.19
2018-12-18T04:00:38.570Z,96061.10
2018-12-18T04:03:14.254Z,96050.83
2018-12-18T04:05:50.094Z,96054.42
2018-12-18T04:08:25.778Z,96058.80
2018-12-18T04:11:01.534Z,96056.16
2018-12-18T04:13:37.161Z,96051.35
2018-12-18T04:16:12.957Z,96067.48
2018-12-18T04:18:48.729Z,96071.30
2018-12-18T04:21:24.282Z,96076.66
2018-12-18T04:24:00.007Z,96080.66
2018-12-18T04:26:35.728Z,96076.30
2018-12-18T04:31:55.605Z,96089.41
2018-12-18T04:34:31.341Z,96093.52
2018-12-18T04:37:07.035Z,96097.08
2018-12-18T04:39:42.762Z,96089.58
2018-12-18T04:42:18.485Z,96089.87
2018-12-18T04:44:54.133Z,96091.78
2018-12-18T04:47:29.752Z,96088.52
2018-12-18T04:52:51.816Z,96092.98
2018-12-18T04:55:27.493Z,96095.05
2018-12-18T04:58:03.345Z,96088.23
2018-12-18T05:00:38.879Z,96096.33
2018-12-18T05:03:14.622Z,96087.75
2018-12-18T05:05:50.501Z,96076.28
2018-12-18T05:08:26.140Z,96068.64
2018-12-18T05:11:01.816Z,96057.27
2018-12-18T05:13:37.432Z,96055.80
2018-12-18T05:16:13.169Z,96059.92
2018-12-18T05:18:48.896Z,96061.45
2018-12-18T05:21:24.455Z,96054.83
2018-12-18T05:24:01.664Z,96054.53
2018-12-18T05:26:37.220Z,96052.53
2018-12-18T05:29:12.860Z,96044.15
2018-12-18T05:31:48.468Z,96047.17
2018-12-18T05:37:08.616Z,96056.47
2018-12-18T05:42:56.752Z,96066.24
2018-12-18T05:45:32.428Z,96068.44
2018-12-18T05:48:20.078Z,96076.17
2018-12-18T05:50:55.870Z,96072.62
2018-12-18T05:53:31.579Z,96078.09
2018-12-18T05:56:07.384Z,96074.25
2018-12-18T05:58:43.112Z,96078.09
2018-12-18T06:01:18.728Z,96077.02
2018-12-18T06:03:54.484Z,96082.94
2018-12-18T06:09:40.311Z,96084.09
2018-12-18T06:18:41.454Z,96065.73
2018-12-18T06:21:31.449Z,96068.47
2018-12-18T06:24:07.254Z,96057.53
2018-12-18T06:26:55.584Z,96060.27
2018-12-18T06:29:31.304Z,96056.36
2018-12-18T06:35:28.692Z,96045.08
2018-12-18T06:38:04.787Z,96032.97
2018-12-18T06:40:40.558Z,96024.78
2018-12-18T06:43:16.449Z,96029.33
2018-12-18T06:45:52.286Z,96026.92
2018-12-18T06:48:28.488Z,96023.02
2018-12-18T06:51:04.315Z,96019.77
2018-12-18T06:53:39.966Z,96026.15
2018-12-18T06:56:15.717Z,96032.52
2018-12-18T06:58:51.552Z,96035.86
2018-12-18T07:01:27.336Z,96037.33
2018-12-18T07:04:03.261Z,96044.15
2018-12-18T07:06:39.005Z,96039.98
2018-12-18T07:09:14.669Z,96034.33
2018-12-18T07:14:57.833Z,96027.70
2018-12-18T07:17:33.630Z,96013.48
2018-12-18T07:20:09.887Z,96005.21
2018-12-18T07:22:45.916Z,96002.21
2018-12-18T07:25:21.684Z,95998.84
2018-12-18T07:27:57.558Z,95993.55
2018-12-18T07:30:33.302Z,95993.91
2018-12-18T07:33:08.882Z,95999.09
2018-12-18T07:35:44.946Z,95990.16
2018-12-18T07:38:20.779Z,95979.51
2018-12-18T07:40:56.434Z,95963.48
2018-12-18T07:43:32.161Z,95950.00
2018-12-18T07:46:07.763Z,95954.44
2018-12-18T07:48:43.549Z,95958.90
2018-12-18T07:51:19.696Z,95953.53
2018-12-18T07:53:55.434Z,95948.30
2018-12-18T07:56:31.115Z,95935.64
2018-12-18T07:59:06.986Z,95937.07
2018-12-18T08:01:42.877Z,95941.70
2018-12-18T08:04:18.629Z,95931.72
2018-12-18T08:06:55.091Z,95923.80
2018-12-18T08:09:30.840Z,95930.00
2018-12-18T08:12:06.609Z,95922.45
2018-12-18T08:14:42.949Z,95909.34
2018-12-18T08:17:18.961Z,95918.47
2018-12-18T08:19:58.062Z,95919.74
2018-12-18T08:22:33.850Z,95922.33
2018-12-18T08:25:09.606Z,95937.22
2018-12-18T08:27:45.305Z,95939.91
2018-12-18T08:30:20.938Z,95943.73
2018-12-18T08:32:56.667Z,95933.16
2018-12-18T08:35:36.477Z,95929.30
2018-12-18T08:38:10.073Z,95926.95
2018-12-18T08:40:45.753Z,95927.03
2018-12-18T08:43:21.364Z,95922.80
2018-12-18T08:45:57.285Z,95926.72
2018-12-18T08:48:32.994Z,95918.73
2018-12-18T08:51:08.652Z,95916.77
2018-12-18T08:53:44.407Z,95907.47
2018-12-18T08:56:20.107Z,95898.56
2018-12-18T08:58:56.003Z,95913.64
2018-12-18T09:01:31.836Z,95905.19
2018-12-18T09:04:07.652Z,95898.02
2018-12-18T09:06:43.363Z,95909.14
2018-12-18T09:09:19.397Z,95892.08
2018-12-18T09:11:55.240Z,95889.77
2018-12-18T09:14:31.084Z,95881.33
2018-12-18T09:17:08.538Z,95887.34
2018-12-18T09:19:44.213Z,95872.17
2018-12-18T09:22:19.954Z,95869.39
2018-12-18T09:24:55.629Z,95865.45
2018-12-18T09:27:31.288Z,95874.51
2018-12-18T09:30:10.470Z,95889.33
2018-12-18T09:32:46.295Z,95889.80
2018-12-18T09:35:21.929Z,95880.46
2018-12-18T09:38:02.572Z,95872.59
2018-12-18T09:40:43.326Z,95879.42
2018-12-18T09:43:24.348Z,95870.95
2018-12-18T09:46:00.127Z,95868.39
2018-12-18T09:48:35.850Z,95865.13
2018-12-18T09:51:11.634Z,95873.63
2018-12-18T09:53:47.384Z,95871.75
2018-12-18T09:56:23.080Z,95879.83
2018-12-18T09:58:59.721Z,95871.88
2018-12-18T10:01:35.510Z,95866.73
2018-12-18T10:04:11.336Z,95852.98
2018-12-18T10:06:47.212Z,95850.30
2018-12-18T10:09:22.895Z,95836.61
2018-12-18T10:11:58.641Z,95837.86
2018-12-18T10:14:34.334Z,95828.80
2018-12-18T10:20:22.701Z,95822.66
2018-12-18T10:22:58.347Z,95804.93
2018-12-18T10:25:34.392Z,95805.89
2018-12-18T10:28:10.712Z,95795.66
2018-12-18T10:30:46.506Z,95792.02
2018-12-18T10:33:22.319Z,95786.30
2018-12-18T10:36:02.980Z,95784.94
2018-12-18T10:38:35.745Z,95768.35
2018-12-18T10:41:11.468Z,95765.86
2018-12-18T10:43:48.303Z,95758.20
2018-12-18T10:46:23.942Z,95744.59
2018-12-18T10:48:59.649Z,95729.20
2018-12-18T10:51:35.528Z,95726.44
2018-12-18T10:54:11.249Z,95724.77
2018-12-18T10:56:47.148Z,95716.80
2018-12-18T10:59:22.937Z,95721.29
2018-12-18T11:02:00.770Z,95711.34
2018-12-18T11:04:37.175Z,95705.42
2018-12-18T11:07:12.850Z,95709.20
2018-12-18T11:09:48.475Z,95710.44
2018-12-18T11:12:29.078Z,95704.72
2018-12-18T11:15:05.399Z,95707.84
2018-12-18T11:17:41.077Z,95695.95
2018-12-18T11:20:17.081Z,95692.71
2018-12-18T11:22:52.706Z,95686.47
2018-12-18T11:25:28.549Z,95680.53
2018-12-18T11:28:04.321Z,95673.00
2018-12-18T11:30:40.063Z,95670.05
2018-12-18T11:33:15.785Z,95667.65
2018-12-18T11:35:52.204Z,95655.02
2018-12-18T11:38:28.030Z,95650.66
2018-12-18T11:41:03.816Z,95654.27
2018-12-18T11:43:39.416Z,95639.80
2018-12-18T11:46:15.191Z,95646.88
2018-12-18T11:48:50.787Z,95647.78
2018-12-18T11:51:26.626Z,95631.86
2018-12-18T11:54:02.325Z,95630.98
2018-12-18T11:56:38.342Z,95631.72
2018-12-18T11:59:15.381Z,95627.13
2018-12-18T12:01:51.780Z,95615.55
2018-12-18T12:04:27.368Z,95623.38
2018-12-18T12:07:03.016Z,95614.73
2018-12-18T12:09:38.760Z,95617.78
2018-12-18T12:12:14.550Z,95610.65
2018-12-18T12:14:50.807Z,95604.33
2018-12-18T12:17:27.720Z,95601.02
2018-12-18T12:20:03.568Z,95595.66
2018-12-18T12:22:39.312Z,95595.91
2018-12-18T12:25:15.169Z,95588.34
2018-12-18T12:27:55.979Z,95571.69
2018-12-18T12:30:31.794Z,95576.73
2018-12-18T12:33:08.359Z,95563.41
2018-12-18T12:35:44.050Z,95558.66
2018-12-18T12:38:20.036Z,95557.93
2018-12-18T12:40:55.831Z,95559.42
2018-12-18T12:43:32.431Z,95558.73
2018-12-18T12:46:08.520Z,95539.91
2018-12-18T12:48:49.212Z,95541.15
2018-12-18T12:51:25.617Z,95538.66
2018-12-18T12:54:01.415Z,95541.77
2018-12-18T12:56:37.273Z,95530.62
2018-12-18T12:59:12.990Z,95534.34
2018-12-18T13:01:48.807Z,95522.16
2018-12-18T13:04:24.474Z,95520.62
2018-12-18T13:07:00.607Z,95522.45
2018-12-18T13:09:36.278Z,95518.50
2018-12-18T13:12:12.383Z,95508.15
2018-12-18T13:14:48.177Z,95507.62
2018-12-18T13:17:23.945Z,95504.69
2018-12-18T13:19:59.711Z,95502.50
2018-12-18T13:22:36.380Z,95509.53
2018-12-18T13:25:12.164Z,95512.56
2018-12-18T13:27:47.867Z,95506.72
2018-12-18T13:30:23.556Z,95509.97
2018-12-18T13:32:59.290Z,95506.42
2018-12-18T13:35:35.292Z,95509.67
2018-12-18T13:38:11.397Z,95511.61
2018-12-18T13:40:47.850Z,95516.23
2018-12-18T13:43:24.439Z,95510.44
2018-12-18T13:46:00.146Z,95514.83
2018-12-18T13:48:35.984Z,95517.64
2018-12-18T13:51:11.648Z,95514.84
2018-12-18T13:53:47.406Z,95510.20
2018-12-18T13:56:23.096Z,95522.34
2018-12-18T13:59:00.377Z,95520.31
2018-12-18T14:01:36.408Z,95522.98
2018-12-18T14:04:12.292Z,95521.34
2018-12-18T14:06:49.781Z,95522.16
2018-12-18T14:09:25.690Z,95511.38
2018-12-18T14:12:01.381Z,95507.73
2018-12-18T14:14:37.074Z,95505.25
2018-12-18T14:17:12.733Z,95501.02
2018-12-18T14:19:48.412Z,95497.63
2018-12-18T14:22:24.223Z,95497.00
2018-12-18T14:24:59.942Z,95487.05
2018-12-18T14:27:35.547Z,95488.20
2018-12-18T14:30:11.650Z,95473.55
2018-12-18T14:32:47.384Z,95465.90
2018-12-18T14:35:23.036Z,95466.59
2018-12-18T14:37:58.795Z,95458.53
2018-12-18T14:40:36.185Z,95454.72
2018-12-18T14:43:12.144Z,95448.52
2018-12-18T14:45:47.959Z,95445.41
2018-12-18T14:48:23.665Z,95449.16
2018-12-18T14:50:59.357Z,95437.70
2018-12-18T14:53:35.026Z,95428.48
2018-12-18T14:56:10.672Z,95417.56
2018-12-18T14:58:46.370Z,95404.63
2018-12-18T15:01:21.950Z,95415.13
2018-12-18T15:03:57.713Z,95412.98
2018-12-18T15:06:33.334Z,95419.13
2018-12-18T15:09:09.292Z,95420.19
2018-12-18T15:11:45.099Z,95419.95
2018-12-18T15:14:20.787Z,95412.70
2018-12-18T15:16:56.472Z,95418.41
2018-12-18T15:19:32.172Z,95419.99
2018-12-18T15:22:07.818Z,95410.46
2018-12-18T15:24:43.544Z,95405.34
2018-12-18T15:27:19.255Z,95417.00
2018-12-18T15:29:55.054Z,95416.59
2018-12-18T15:32:30.947Z,95411.86
2018-12-18T15:35:06.982Z,95420.66
2018-12-18T15:37:43.247Z,95419.38
2018-12-18T15:40:19.017Z,95421.02
2018-12-18T15:42:54.566Z,95426.56
2018-12-18T15:45:35.224Z,95422.21
2018-12-18T15:48:11.021Z,95430.95
2018-12-18T15:50:46.879Z,95434.09
2018-12-18T15:53:22.479Z,95429.45
2018-12-18T15:55:58.222Z,95433.90
2018-12-18T15:58:34.148Z,95422.76
2018-12-18T16:01:09.791Z,95418.80
2018-12-18T16:03:45.495Z,95417.14
2018-12-18T16:06:21.273Z,95411.95
2018-12-18T16:08:56.903Z,95404.87
2018-12-18T16:11:32.531Z,95404.13
2018-12-18T16:14:08.373Z,95392.67
2018-12-18T16:16:44.241Z,95386.28
2018-12-18T16:19:21.112Z,95382.95
2018-12-18T16:21:56.822Z,95391.45
2018-12-18T16:24:32.533Z,95382.05
2018-12-18T16:27:08.385Z,95381.02
2018-12-18T16:32:25.496Z,95369.40
2018-12-18T16:35:01.111Z,95361.77
2018-12-18T16:37:37.054Z,95350.84
2018-12-18T16:40:12.903Z,95347.80
2018-12-18T16:42:48.632Z,95348.86
2018-12-18T16:45:24.292Z,95351.05
2018-12-18T16:47:59.936Z,95353.85
2018-12-18T16:50:35.840Z,95361.40
2018-12-18T16:53:11.516Z,95352.70
2018-12-18T16:55:47.097Z,95356.66
2018-12-18T16:58:22.909Z,95359.94
2018-12-18T17:00:58.580Z,95366.54
2018-12-18T17:03:34.290Z,95364.20
2018-12-18T17:06:10.115Z,95363.41
2018-12-18T17:08:45.868Z,95365.38
2018-12-18T17:11:21.654Z,95367.13
2018-12-18T17:13:57.313Z,95357.70
2018-12-18T17:16:33.006Z,95362.71
2018-12-18T17:19:08.649Z,95359.70
2018-12-18T17:21:45.269Z,95355.51
2018-12-18T17:24:21.156Z,95357.59
2018-12-18T17:26:56.864Z,95352.73
2018-12-18T17:29:32.613Z,95359.91
2018-12-18T17:32:08.387Z,95354.82
2018-12-18T17:34:44.229Z,95349.95
2018-12-18T17:37:20.125Z,95350.97
2018-12-18T17:39:55.782Z,95347.83
2018-12-18T17:42:31.481Z,95352.03
2018-12-18T17:45:09.039Z,95343.54
2018-12-18T17:47:45.357Z,95339.95
2018-12-18T17:50:21.079Z,95342.29
2018-12-18T17:52:56.756Z,95337.75
2018-12-18T17:58:12.772Z,95327.06
2018-12-18T18:00:48.470Z,95325.92
2018-12-18T18:03:24.189Z,95321.62
2018-12-18T18:05:59.969Z,95320.92
2018-12-18T18:08:35.732Z,95318.14
2018-12-18T18:11:11.494Z,95317.89
2018-12-18T18:13:47.367Z,95325.58
2018-12-18T18:19:07.184Z,95334.38
2018-12-18T18:21:43.010Z,95341.94
2018-12-18T18:24:18.705Z,95340.98
2018-12-18T18:26:54.614Z,95328.56
2018-12-18T18:29:30.360Z,95317.20
2018-12-18T18:32:06.478Z,95324.37
2018-12-18T18:34:42.339Z,95327.73
2018-12-18T18:37:18.086Z,95324.91
2018-12-18T18:39:54.579Z,95319.20
2018-12-18T18:42:30.185Z,95325.03
2018-12-18T18:45:07.329Z,95318.63
2018-12-18T18:47:44.415Z,95326.39
2018-12-18T18:50:20.767Z,95312.09
2018-12-18T18:52:56.464Z,95308.78
2018-12-18T18:55:32.089Z,95309.79
2018-12-18T18:58:07.917Z,95312.66
2018-12-18T19:00:43.683Z,95319.12
2018-12-18T19:03:19.435Z,95310.91
2018-12-18T19:05:55.223Z,95307.28
2018-12-18T19:08:30.947Z,95313.91
2018-12-18T19:11:06.851Z,95306.71
2018-12-18T19:13:42.578Z,95307.98
2018-12-18T19:16:18.513Z,95318.30
2018-12-18T19:18:54.301Z,95307.98
2018-12-18T19:21:30.071Z,95306.71
2018-12-18T19:24:05.797Z,95297.36
2018-12-18T19:26:41.643Z,95297.40
2018-12-18T19:31:59.040Z,95287.37
2018-12-18T19:34:34.746Z,95293.06
2018-12-18T19:37:10.562Z,95293.99
2018-12-18T19:39:46.707Z,95296.77
2018-12-18T19:42:22.734Z,95298.97
2018-12-18T19:44:59.212Z,95306.25
2018-12-18T19:47:34.945Z,95302.76
2018-12-18T19:50:10.917Z,95278.77
2018-12-18T19:52:46.991Z,95299.42
2018-12-18T19:55:22.716Z,95294.20
2018-12-18T19:57:58.485Z,95295.67
2018-12-18T20:00:35.734Z,95289.53
2018-12-18T20:03:12.185Z,95292.41
2018-12-18T20:05:49.072Z,95280.70
2018-12-18T20:08:24.695Z,95285.56
2018-12-18T20:11:00.294Z,95286.59
2018-12-18T20:13:36.105Z,95286.12
2018-12-18T20:16:11.957Z,95284.02
2018-12-18T20:18:47.644Z,95292.09
2018-12-18T20:21:23.384Z,95293.28
2018-12-18T20:23:59.782Z,95285.05
2018-12-18T20:26:35.629Z,95286.86
2018-12-18T20:29:12.064Z,95304.45
2018-12-18T20:31:47.793Z,95310.62
2018-12-18T20:34:23.402Z,95307.39
2018-12-18T20:36:59.093Z,95314.67
2018-12-18T20:39:34.761Z,95315.86
2018-12-18T20:42:10.531Z,95322.13
2018-12-18T20:44:46.267Z,95326.03
2018-12-18T20:47:22.314Z,95316.91
2018-12-18T20:49:57.902Z,95322.32
2018-12-18T20:52:34.162Z,95312.97
2018-12-18T20:55:09.837Z,95306.59
2018-12-18T20:57:45.485Z,95327.92
2018-12-18T21:00:21.297Z,95322.77
2018-12-18T21:02:56.980Z,95324.30
2018-12-18T21:05:32.790Z,95324.98
2018-12-18T21:08:09.054Z,95321.22
2018-12-18T21:10:45.215Z,95324.41
2018-12-18T21:13:31.010Z,95317.48
2018-12-18T21:16:06.704Z,95326.91
2018-12-18T21:18:42.466Z,95313.82
2018-12-18T21:21:18.239Z,95319.42
2018-12-18T21:23:54.247Z,95310.28
2018-12-18T21:26:30.408Z,95306.81
2018-12-18T21:29:06.253Z,95308.31
2018-12-18T21:31:42.244Z,95296.28
2018-12-18T21:34:18.182Z,95295.95
2018-12-18T21:36:54.023Z,95274.02
2018-12-18T21:39:29.846Z,95288.67
2018-12-18T21:42:05.727Z,95276.70
2018-12-18T21:44:41.521Z,95286.23
2018-12-18T21:47:17.356Z,95297.13
2018-12-18T21:49:53.237Z,95283.41
2018-12-18T21:52:29.002Z,95275.37
2018-12-18T21:55:04.985Z,95279.03
2018-12-18T21:57:41.100Z,95275.78
2018-12-18T22:00:17.064Z,95272.95
2018-12-18T22:02:52.959Z,95259.77
2018-12-18T22:05:28.783Z,95251.80
2018-12-18T22:08:04.593Z,95249.48
2018-12-18T22:10:40.500Z,95235.50
2018-12-18T22:13:16.142Z,95233.38
2018-12-18T22:15:51.878Z,95223.84
2018-12-18T22:18:27.601Z,95225.21
2018-12-18T22:21:03.517Z,95223.59
2018-12-18T22:23:39.224Z,95230.20
2018-12-18T22:26:15.201Z,95229.50
2018-12-18T22:31:32.236Z,95238.50
2018-12-18T22:34:08.323Z,95220.06
2018-12-18T22:36:43.955Z,95214.59
2018-12-18T22:39:19.694Z,95198.56
2018-12-18T22:41:55.488Z,95197.39
2018-12-18T22:44:31.053Z,95200.88
2018-12-18T22:47:06.833Z,95191.09
2018-12-18T22:49:42.794Z,95192.13
2018-12-18T22:52:18.436Z,95188.29
2018-12-18T22:54:54.232Z,95190.04
2018-12-18T22:57:29.992Z,95193.28
2018-12-18T23:00:07.983Z,95214.03
2018-12-18T23:02:43.732Z,95195.11
2018-12-18T23:05:19.443Z,95206.11
2018-12-18T23:07:55.415Z,95202.47
2018-12-18T23:10:31.179Z,95191.25
2018-12-18T23:13:07.105Z,95183.30
2018-12-18T23:15:42.681Z,95189.13
2018-12-18T23:18:18.378Z,95184.78
2018-12-18T23:20:54.160Z,95178.24
2018-12-18T23:23:30.623Z,95185.47
2018-12-18T23:26:06.253Z,95167.89
2018-12-18T23:28:42.030Z,95154.77
2018-12-18T23:31:17.606Z,95163.97
2018-12-18T23:33:53.271Z,95147.28
2018-12-18T23:36:29.017Z,95142.31
2018-12-18T23:39:07.797Z,95136.50
2018-12-18T23:41:43.572Z,95131.05
2018-12-18T23:44:19.172Z,95116.77
2018-12-18T23:46:55.143Z,95119.56
2018-12-18T23:49:30.901Z,95118.70
2018-12-18T23:52:06.648Z,95123.42
2018-12-18T23:54:42.343Z,95128.27
2018-12-18T23:57:18.017Z,95127.34
2018-12-18T23:59:53.687Z,95129.53
